Time;durP1;ratioP1;P1;durP2;ratioP2;P2;SDS_P1;SDS_P2;PMS_P1;PMS_P2;Temp;Humidity;BMP_temperature;BMP_pressure;BME280_temperature;BME280_humidity;BME280_pressure;Samples;Min_cycle;Max_cycle;Signal;HPM_P1;HPM_P2
2024/01/07 00:00:20;;;;;;;0.90;0.90;;;;;;;2.49;95.86;97930.47;4972088;28;20103;-91
2024/01/07 00:02:46;;;;;;;1.00;1.00;;;;;;;2.52;96.08;97927.97;4963488;28;20054;-92
2024/01/07 00:05:16;;;;;;;0.90;0.90;;;;;;;2.66;95.83;97913.72;4971005;28;20043;-92
2024/01/07 00:07:48;;;;;;;1.10;1.10;;;;;;;2.49;95.38;97922.56;4953799;29;20039;-93
2024/01/07 00:10:22;;;;;;;1.00;1.00;;;;;;;2.49;95.72;97923.50;4967413;28;20035;-91
2024/01/07 00:15:31;;;;;;;1.00;1.00;;;;;;;2.65;95.35;97922.47;5442194;23;20063;-91
2024/01/07 00:17:57;;;;;;;;;;;;;;;2.65;95.34;97934.75;4935092;29;20080;-94
2024/01/07 00:20:23;;;;;;;1.00;1.00;;;;;;;2.72;95.20;97928.91;4927624;29;19923;-93
2024/01/07 00:22:50;;;;;;;1.10;1.10;;;;;;;2.66;95.41;97934.81;4949225;29;20079;-93
2024/01/07 00:25:19;;;;;;;1.00;1.00;;;;;;;2.63;95.47;97929.38;4952231;28;20040;-94
2024/01/07 00:27:46;;;;;;;1.00;1.00;;;;;;;2.76;95.54;97933.50;4945386;28;20039;-93
2024/01/07 00:30:16;;;;;;;1.00;1.00;;;;;;;2.75;95.40;97935.22;4962935;28;20039;-92
2024/01/07 00:32:44;;;;;;;0.93;0.93;;;;;;;2.85;95.21;97931.28;4932177;28;20027;-94
2024/01/07 00:35:11;;;;;;;1.00;1.00;;;;;;;2.95;94.59;97933.50;4961381;28;20051;-91
2024/01/07 00:37:38;;;;;;;;;;;;;;;2.92;94.48;97937.72;4947878;29;20115;-92
2024/01/07 00:40:05;;;;;;;;;;;;;;;2.70;95.04;97935.84;4936612;28;19927;-93
2024/01/07 00:42:34;;;;;;;1.00;1.00;;;;;;;2.73;95.30;97936.91;4930472;29;19927;-93
2024/01/07 00:45:00;;;;;;;0.90;0.90;;;;;;;2.93;94.48;97931.66;4928974;29;20040;-92
2024/01/07 00:47:27;;;;;;;1.00;1.00;;;;;;;2.86;94.56;97934.81;4928627;29;20063;-94
2024/01/07 00:49:57;;;;;;;0.98;0.98;;;;;;;2.75;94.62;97932.59;4929901;29;20068;-92
2024/01/07 00:52:23;;;;;;;0.98;0.98;;;;;;;2.71;95.10;97933.28;4927891;29;20123;-93
2024/01/07 00:54:51;;;;;;;1.00;1.00;;;;;;;2.75;94.67;97936.97;4929316;29;20120;-92
2024/01/07 00:57:16;;;;;;;1.02;1.02;;;;;;;2.65;94.93;97937.38;4927668;29;20116;-93
2024/01/07 00:59:43;;;;;;;1.10;1.10;;;;;;;2.70;95.18;97933.22;4945186;28;20044;-93
2024/01/07 01:02:12;;;;;;;;;;;;;;;2.81;94.69;97935.50;4925719;29;20050;-94
2024/01/07 01:04:41;;;;;;;1.00;1.00;;;;;;;2.80;94.83;97932.81;4932848;29;19923;-95
2024/01/07 01:07:08;;;;;;;1.00;1.00;;;;;;;2.85;94.72;97939.19;4929468;29;20040;-96
2024/01/07 01:09:34;;;;;;;1.10;1.10;;;;;;;2.91;94.79;97938.56;4928594;29;20048;-94
2024/01/07 01:12:01;;;;;;;;;;;;;;;3.00;94.61;97941.63;4945813;28;20048;-94
2024/01/07 01:14:33;;;;;;;0.90;0.90;;;;;;;2.90;94.77;97948.22;4931155;29;19970;-91
2024/01/07 01:16:59;;;;;;;1.00;1.00;;;;;;;3.08;94.09;97953.44;4937143;29;20100;-95
2024/01/07 01:19:28;;;;;;;0.90;0.90;;;;;;;2.96;94.14;97944.94;4928271;29;20067;-94
2024/01/07 01:21:54;;;;;;;1.00;1.00;;;;;;;3.03;94.07;97955.84;4929389;29;20051;-92
2024/01/07 01:24:20;;;;;;;1.00;1.00;;;;;;;2.93;94.22;97953.63;4907839;28;20044;-92
2024/01/07 01:26:49;;;;;;;1.00;1.00;;;;;;;2.98;93.65;97959.13;4929245;29;20040;-93
2024/01/07 01:29:19;;;;;;;1.00;1.00;;;;;;;2.99;93.73;97953.00;4930496;29;20043;-93
2024/01/07 01:31:49;;;;;;;0.88;0.88;;;;;;;2.99;93.92;97956.53;4945889;28;20051;-93
2024/01/07 01:34:15;;;;;;;0.90;0.90;;;;;;;3.02;93.33;97953.16;4932355;29;20115;-91
2024/01/07 01:36:46;;;;;;;1.00;1.00;;;;;;;3.09;93.12;97961.41;4933086;29;20337;-94
2024/01/07 01:39:15;;;;;;;1.00;1.00;;;;;;;2.99;93.50;97964.44;4944893;28;20106;-92
2024/01/07 01:41:41;;;;;;;1.10;1.10;;;;;;;3.14;93.54;97961.59;4932375;29;20087;-94
2024/01/07 01:44:07;;;;;;;1.00;1.00;;;;;;;3.05;93.65;97959.44;4947444;29;20048;-93
2024/01/07 01:46:36;;;;;;;1.00;1.00;;;;;;;3.08;93.29;97963.97;4917082;29;20064;-92
2024/01/07 01:49:03;;;;;;;1.00;1.00;;;;;;;2.98;93.25;97969.66;4932307;29;20071;-93
2024/01/07 01:51:33;;;;;;;1.05;1.05;;;;;;;2.89;94.12;97962.22;4939821;29;21240;-94
2024/01/07 01:54:03;;;;;;;1.00;1.00;;;;;;;2.99;93.81;97961.81;4940288;29;20041;-93
2024/01/07 01:56:31;;;;;;;0.90;0.90;;;;;;;3.04;93.88;97964.66;4933223;29;20032;-92
2024/01/07 01:58:57;;;;;;;1.00;1.00;;;;;;;3.12;93.34;97968.56;4929458;29;20055;-92
2024/01/07 02:01:24;;;;;;;1.00;1.00;;;;;;;3.11;92.98;97956.19;4929516;29;20088;-93
2024/01/07 02:03:52;;;;;;;0.90;0.90;;;;;;;2.95;92.87;97961.59;4937557;29;20040;-95
2024/01/07 02:06:20;;;;;;;1.00;1.00;;;;;;;2.95;93.52;97964.22;4948816;28;20052;-93
2024/01/07 02:08:47;;;;;;;1.05;1.05;;;;;;;2.86;93.56;97961.16;4937139;28;20051;-93
2024/01/07 02:11:23;;;;;;;1.00;1.00;;;;;;;2.89;93.47;97958.69;4936550;29;20020;-91
2024/01/07 02:13:49;;;;;;;1.00;1.00;;;;;;;2.89;93.76;97953.41;4951048;29;20024;-92
2024/01/07 02:16:17;;;;;;;1.00;1.00;;;;;;;2.81;94.38;97956.59;4933816;28;20032;-92
2024/01/07 02:18:45;;;;;;;1.00;1.00;;;;;;;2.68;94.87;97959.47;4952171;28;20497;-91
2024/01/07 02:21:14;;;;;;;1.00;1.00;;;;;;;2.64;95.13;97956.66;4952008;28;20080;-93
2024/01/07 02:23:45;;;;;;;1.00;1.00;;;;;;;2.74;95.27;97957.16;4940398;29;20035;-93
2024/01/07 02:26:11;;;;;;;1.00;1.00;;;;;;;2.65;94.96;97963.72;4948579;29;20340;-92
2024/01/07 02:28:38;;;;;;;1.00;1.00;;;;;;;2.61;95.19;97951.22;4933941;29;20044;-92
2024/01/07 02:31:04;;;;;;;0.93;0.93;;;;;;;2.53;95.46;97964.00;4922634;29;20075;-93
2024/01/07 02:33:31;;;;;;;1.00;1.00;;;;;;;2.48;95.75;97970.78;4949284;28;20052;-92
2024/01/07 02:35:57;;;;;;;0.90;0.90;;;;;;;2.51;95.77;97963.94;4923542;29;20012;-92
2024/01/07 02:38:25;;;;;;;1.10;1.10;;;;;;;2.52;96.14;97962.22;4936892;29;20063;-93
2024/01/07 02:40:54;;;;;;;1.00;1.00;;;;;;;2.62;95.72;97974.09;4937273;28;20048;-93
2024/01/07 02:43:20;;;;;;;1.00;1.00;;;;;;;2.64;95.86;97970.72;4949489;28;20033;-93
2024/01/07 02:45:47;;;;;;;1.10;1.10;;;;;;;2.69;95.71;97958.66;4940029;29;20059;-91
2024/01/07 02:48:18;;;;;;;0.90;0.90;;;;;;;2.70;95.34;97967.47;4949595;28;20036;-92
2024/01/07 02:53:15;;;;;;;1.00;1.00;;;;;;;2.48;95.78;97965.53;4929801;29;20031;-93
2024/01/07 02:55:42;;;;;;;1.10;1.10;;;;;;;2.38;95.48;97966.81;4929426;29;20055;-92
2024/01/07 03:00:48;;;;;;;1.10;1.10;;;;;;;2.35;96.02;97971.00;4936501;29;20035;-91
2024/01/07 03:03:17;;;;;;;1.00;1.00;;;;;;;2.33;95.77;97972.69;4935285;29;20020;-93
2024/01/07 03:05:45;;;;;;;1.00;1.00;;;;;;;2.46;95.70;97968.09;4934095;29;20043;-93
2024/01/07 03:08:11;;;;;;;;;;;;;;;2.53;95.73;97970.16;4917039;29;20066;-93
2024/01/07 03:10:38;;;;;;;1.00;1.00;;;;;;;2.39;95.41;97962.44;4932742;29;19923;-92
2024/01/07 03:13:11;;;;;;;1.00;1.00;;;;;;;2.33;95.81;97970.06;4932500;29;20059;-93
2024/01/07 03:15:38;;;;;;;1.10;1.10;;;;;;;2.57;95.17;97961.59;4931864;29;20046;-93
2024/01/07 03:18:05;;;;;;;;;;;;;;;2.40;95.12;97965.16;4923085;29;20035;-93
2024/01/07 03:20:32;;;;;;;1.00;1.00;;;;;;;2.26;95.42;97964.50;4933506;29;19922;-93
2024/01/07 03:23:00;;;;;;;1.00;1.00;;;;;;;2.28;95.54;97973.34;4919110;29;20051;-93
2024/01/07 03:25:26;;;;;;;0.98;0.98;;;;;;;2.37;95.63;97972.00;4930038;29;20087;-92
2024/01/07 03:27:54;;;;;;;1.00;1.00;;;;;;;2.54;95.10;97971.09;4933503;29;20032;-94
2024/01/07 03:30:21;;;;;;;1.05;1.05;;;;;;;2.62;95.21;97972.34;4948310;28;20048;-94
2024/01/07 03:35:24;;;;;;;1.00;1.00;;;;;;;2.86;92.87;97980.50;5646349;23;20039;-93
2024/01/07 03:37:50;;;;;;;1.00;1.00;;;;;;;2.83;92.86;97978.66;4942104;29;20031;-94
2024/01/07 03:40:19;;;;;;;1.00;1.00;;;;;;;2.86;92.73;97975.25;4971603;28;20370;-94
2024/01/07 03:42:44;;;;;;;1.00;1.00;;;;;;;2.89;92.45;97980.66;4963189;28;20486;-93
2024/01/07 03:45:14;;;;;;;1.00;1.00;;;;;;;2.98;92.10;97980.19;4954355;28;20083;-92
2024/01/07 03:47:44;;;;;;;1.00;1.00;;;;;;;3.03;91.77;97987.47;4968732;28;20043;-94
2024/01/07 03:50:11;;;;;;;1.00;1.00;;;;;;;2.95;91.95;97980.03;4952504;29;20441;-92
2024/01/07 03:52:37;;;;;;;0.90;0.90;;;;;;;3.17;90.45;97981.94;4935997;28;20035;-91
2024/01/07 03:55:07;;;;;;;0.90;0.90;;;;;;;3.18;89.35;97989.00;4980753;28;20051;-91
2024/01/07 03:57:34;;;;;;;1.00;1.00;;;;;;;3.06;89.46;97984.97;4944960;29;20505;-93
2024/01/07 04:00:00;;;;;;;1.00;1.00;;;;;;;3.05;90.28;97984.91;4971015;28;20055;-93
2024/01/07 04:02:27;;;;;;;1.00;1.00;;;;;;;3.12;89.87;97979.09;4964860;28;20035;-92
2024/01/07 04:04:56;;;;;;;0.93;0.93;;;;;;;3.11;89.82;97989.53;4948697;29;20047;-93
2024/01/07 04:07:23;;;;;;;1.00;1.00;;;;;;;3.02;90.93;97988.31;4965945;28;20051;-92
2024/01/07 04:09:49;;;;;;;1.00;1.00;;;;;;;3.09;90.51;97992.13;4973448;28;20104;-91
2024/01/07 04:12:15;;;;;;;1.10;1.10;;;;;;;3.12;90.43;97989.63;4971662;28;20030;-92
2024/01/07 04:20:08;;;;;;;0.98;0.98;;;;;;;3.02;89.92;97992.69;5075263;23;20208;-91
2024/01/07 04:22:34;;;;;;;1.00;1.00;;;;;;;3.02;90.24;97990.03;5004176;28;20099;-91
2024/01/07 04:25:01;;;;;;;1.10;1.10;;;;;;;2.98;89.83;97998.63;4957952;28;20042;-91
2024/01/07 04:27:27;;;;;;;1.00;1.00;;;;;;;3.00;90.35;98003.13;4978553;28;20051;-93
2024/01/07 04:29:53;;;;;;;1.00;1.00;;;;;;;2.99;90.15;98003.06;4994142;28;20019;-92
2024/01/07 04:32:20;;;;;;;1.00;1.00;;;;;;;2.98;90.47;98001.28;4976118;28;20083;-92
2024/01/07 04:34:48;;;;;;;0.90;0.90;;;;;;;3.05;90.18;98003.34;4976696;28;20094;-93
2024/01/07 04:37:30;;;;;;;1.00;1.00;;;;;;;3.11;90.50;98005.34;4982082;28;20185;-93
2024/01/07 04:39:58;;;;;;;0.90;0.90;;;;;;;3.00;90.60;98004.88;4981061;28;20043;-92
2024/01/07 04:42:24;;;;;;;1.10;1.10;;;;;;;3.04;90.62;98009.44;5009072;28;20054;-92
2024/01/07 04:44:53;;;;;;;1.00;1.00;;;;;;;2.94;90.98;98012.50;4975244;28;20074;-92
2024/01/07 04:47:35;;;;;;;0.95;0.95;;;;;;;2.91;91.12;98012.34;4961189;28;20438;-93
2024/01/07 04:50:03;;;;;;;1.00;1.00;;;;;;;2.88;90.79;98014.84;4980810;28;20038;-92
2024/01/07 04:52:32;;;;;;;1.00;1.00;;;;;;;2.91;90.91;98020.25;4963654;28;20027;-93
2024/01/07 04:54:58;;;;;;;0.93;0.93;;;;;;;2.82;91.13;98018.06;4994876;28;20035;-92
2024/01/07 04:57:24;;;;;;;1.00;1.00;;;;;;;2.87;91.52;98018.28;4968517;28;20057;-91
2024/01/07 04:59:52;;;;;;;0.90;0.90;;;;;;;2.90;91.88;98016.72;4969612;28;20030;-91
2024/01/07 05:02:19;;;;;;;1.00;1.00;;;;;;;2.89;91.47;98028.09;4982464;28;20047;-92
2024/01/07 05:04:48;;;;;;;1.00;1.00;;;;;;;2.84;91.73;98026.97;4977968;28;20051;-94
2024/01/07 05:07:16;;;;;;;1.00;1.00;;;;;;;2.84;91.52;98029.59;4975542;28;20042;-92
2024/01/07 05:09:43;;;;;;;1.00;1.00;;;;;;;2.96;91.16;98024.88;4974406;28;20044;-93
2024/01/07 05:12:09;;;;;;;1.00;1.00;;;;;;;3.01;91.42;98033.00;4967747;28;20042;-93
2024/01/07 05:14:38;;;;;;;1.00;1.00;;;;;;;2.96;91.13;98031.91;4953360;28;20047;-92
2024/01/07 05:17:06;;;;;;;1.00;1.00;;;;;;;3.01;91.52;98030.38;4996688;28;20043;-93
2024/01/07 05:19:31;;;;;;;1.00;1.00;;;;;;;3.08;91.33;98040.41;4976791;28;20051;-93
2024/01/07 05:21:58;;;;;;;1.00;1.00;;;;;;;3.12;90.70;98042.34;4974935;28;20047;-93
2024/01/07 05:24:25;;;;;;;;;;;;;;;3.17;91.20;98046.09;4968270;28;20038;-94
2024/01/07 05:26:51;;;;;;;1.00;1.00;;;;;;;3.12;91.58;98037.06;4986109;28;19923;-94
2024/01/07 05:29:17;;;;;;;1.00;1.00;;;;;;;3.20;90.51;98043.59;4969598;28;20053;-93
2024/01/07 05:31:43;;;;;;;1.00;1.00;;;;;;;3.16;90.52;98054.81;4967138;28;20046;-93
2024/01/07 05:34:09;;;;;;;0.90;0.90;;;;;;;3.12;90.84;98044.97;4967542;28;20051;-93
2024/01/07 05:36:35;;;;;;;1.10;1.10;;;;;;;3.12;90.64;98046.72;4965367;28;20043;-93
2024/01/07 05:39:03;;;;;;;1.00;1.00;;;;;;;3.15;89.18;98045.09;4934942;28;20043;-90
2024/01/07 05:41:29;;;;;;;1.10;1.10;;;;;;;3.24;86.98;98044.63;4967139;28;20114;-93
2024/01/07 05:43:56;;;;;;;1.10;1.10;;;;;;;3.12;88.52;98054.63;4965423;28;20098;-93
2024/01/07 05:46:22;;;;;;;1.08;1.08;;;;;;;3.13;88.93;98051.16;4961398;28;20094;-92
2024/01/07 05:48:50;;;;;;;1.00;1.00;;;;;;;3.22;86.82;98052.47;4950842;28;20031;-93
2024/01/07 05:51:16;;;;;;;0.90;0.90;;;;;;;3.11;87.12;98064.22;4942257;28;20042;-92
2024/01/07 05:53:44;;;;;;;0.95;0.95;;;;;;;3.21;86.89;98058.59;4964168;28;20134;-93
2024/01/07 05:56:09;;;;;;;1.10;1.10;;;;;;;3.26;85.63;98066.72;4962081;28;20035;-93
2024/01/07 05:58:35;;;;;;;1.10;1.10;;;;;;;3.18;86.51;98061.06;4945295;28;20050;-93
2024/01/07 06:01:08;;;;;;;1.08;1.08;;;;;;;3.13;87.46;98066.97;4953681;28;20043;-91
2024/01/07 06:03:34;;;;;;;1.00;1.00;;;;;;;3.14;87.26;98064.38;4950593;28;20545;-93
2024/01/07 06:05:59;;;;;;;0.98;0.98;;;;;;;3.14;87.99;98064.38;4949983;28;20058;-93
2024/01/07 06:08:27;;;;;;;1.00;1.00;;;;;;;3.22;86.83;98070.94;4964787;28;20035;-95
2024/01/07 06:10:53;;;;;;;1.00;1.00;;;;;;;3.17;87.19;98076.81;4954982;28;20040;-94
2024/01/07 06:13:24;;;;;;;1.00;1.00;;;;;;;3.11;87.74;98069.50;4953083;28;20046;-95
2024/01/07 06:15:52;;;;;;;0.90;0.90;;;;;;;3.12;87.12;98073.97;4997865;28;20386;-93
2024/01/07 06:18:18;;;;;;;;;;;;;;;3.25;86.49;98075.44;4967511;28;20054;-93
2024/01/07 06:20:45;;;;;;;1.00;1.00;;;;;;;3.17;86.53;98074.19;4956501;28;20135;-93
2024/01/07 06:23:12;;;;;;;1.00;1.00;;;;;;;3.20;85.88;98082.22;4968579;28;20052;-92
2024/01/07 06:25:39;;;;;;;1.00;1.00;;;;;;;3.11;85.86;98079.16;4947079;28;20046;-93
2024/01/07 06:28:05;;;;;;;1.10;1.10;;;;;;;3.18;85.93;98084.78;4956344;29;20047;-93
2024/01/07 06:30:31;;;;;;;1.00;1.00;;;;;;;3.13;85.96;98093.31;4954211;28;20039;-94
2024/01/07 06:32:57;;;;;;;1.08;1.08;;;;;;;3.18;85.63;98091.81;4967101;28;20118;-94
2024/01/07 06:35:26;;;;;;;1.00;1.00;;;;;;;3.04;85.38;98097.31;4942015;28;20038;-93
2024/01/07 06:37:53;;;;;;;1.10;1.10;;;;;;;3.13;85.49;98104.75;4969148;28;20055;-93
2024/01/07 06:40:19;;;;;;;1.00;1.00;;;;;;;3.17;84.99;98097.91;4971077;28;20046;-93
2024/01/07 06:42:47;;;;;;;1.10;1.10;;;;;;;3.09;85.11;98110.72;4969426;28;20039;-94
2024/01/07 06:45:16;;;;;;;1.00;1.00;;;;;;;3.04;84.90;98110.50;4973197;28;20045;-93
2024/01/07 06:47:44;;;;;;;1.10;1.10;;;;;;;3.12;84.38;98113.50;4968621;28;20046;-93
2024/01/07 06:50:10;;;;;;;1.10;1.10;;;;;;;3.12;85.20;98112.59;4967776;28;20125;-93
2024/01/07 06:52:36;;;;;;;1.10;1.10;;;;;;;3.01;85.76;98122.59;4998402;28;20023;-92
2024/01/07 06:55:03;;;;;;;1.10;1.10;;;;;;;3.08;85.60;98120.34;4990640;28;20062;-93
2024/01/07 06:57:29;;;;;;;1.00;1.00;;;;;;;3.09;85.34;98123.88;4975034;28;20123;-95
2024/01/07 06:59:54;;;;;;;1.00;1.00;;;;;;;3.11;85.05;98132.75;4989896;28;20062;-93
2024/01/07 07:02:21;;;;;;;1.05;1.05;;;;;;;3.16;84.93;98131.25;4978529;28;20023;-94
2024/01/07 07:04:50;;;;;;;1.00;1.00;;;;;;;3.08;84.94;98135.25;4982271;28;20098;-93
2024/01/07 07:07:17;;;;;;;1.10;1.10;;;;;;;3.04;85.41;98133.31;4983396;28;20046;-93
2024/01/07 07:09:43;;;;;;;1.10;1.10;;;;;;;3.09;84.97;98137.97;4987461;28;20099;-94
2024/01/07 07:12:09;;;;;;;1.00;1.00;;;;;;;2.98;85.16;98144.47;4954669;28;20081;-91
2024/01/07 07:14:35;;;;;;;1.08;1.08;;;;;;;2.95;85.18;98140.75;4952553;28;20027;-93
2024/01/07 07:17:01;;;;;;;1.10;1.10;;;;;;;2.88;85.61;98158.00;4971691;28;20055;-93
2024/01/07 07:19:28;;;;;;;1.05;1.05;;;;;;;2.83;84.09;98155.16;4947854;28;1595927;-92
2024/01/07 07:21:55;;;;;;;;;;;;;;;2.77;83.94;98165.34;4967604;28;20058;-91
2024/01/07 07:24:22;;;;;;;1.10;1.10;;;;;;;2.70;84.41;98172.88;4967192;28;19919;-94
2024/01/07 07:26:51;;;;;;;1.00;1.00;;;;;;;2.64;83.42;98176.13;4986282;28;20043;-92
2024/01/07 07:29:19;;;;;;;1.10;1.10;;;;;;;2.59;84.20;98174.97;4980414;28;20083;-94
2024/01/07 07:31:46;;;;;;;1.10;1.10;;;;;;;2.58;83.43;98178.41;4979071;28;20035;-92
2024/01/07 07:34:13;;;;;;;1.10;1.10;;;;;;;2.63;84.11;98182.19;4982737;28;20090;-92
2024/01/07 07:36:40;;;;;;;1.10;1.10;;;;;;;2.60;84.35;98182.06;4995835;28;20031;-91
2024/01/07 07:39:09;;;;;;;1.08;1.08;;;;;;;2.62;84.00;98190.00;4983376;28;20023;-93
2024/01/07 07:41:35;;;;;;;1.10;1.10;;;;;;;2.61;81.35;98194.38;4973817;28;20031;-91
2024/01/07 07:44:01;;;;;;;1.10;1.10;;;;;;;2.60;81.62;98203.13;4972735;28;20027;-92
2024/01/07 07:46:27;;;;;;;1.10;1.10;;;;;;;2.54;82.31;98201.06;4971647;28;20031;-93
2024/01/07 07:48:53;;;;;;;1.10;1.10;;;;;;;2.54;80.73;98197.53;4958145;28;20143;-90
2024/01/07 07:51:20;;;;;;;1.10;1.10;;;;;;;2.58;81.27;98204.75;4956709;28;20045;-91
2024/01/07 07:53:46;;;;;;;1.10;1.10;;;;;;;2.60;80.28;98200.47;4990369;28;20027;-92
2024/01/07 07:56:11;;;;;;;1.10;1.10;;;;;;;2.58;81.04;98212.66;4962597;28;20115;-92
2024/01/07 07:58:39;;;;;;;1.00;1.00;;;;;;;2.60;81.09;98216.28;4966338;28;20034;-92
2024/01/07 08:01:06;;;;;;;1.10;1.10;;;;;;;2.65;80.59;98214.78;4975147;28;20125;-94
2024/01/07 08:03:32;;;;;;;1.00;1.00;;;;;;;2.65;80.33;98217.41;4993379;28;20050;-92
2024/01/07 08:05:58;;;;;;;1.00;1.00;;;;;;;2.68;81.15;98222.81;4957130;28;20043;-93
2024/01/07 08:08:25;;;;;;;1.10;1.10;;;;;;;2.67;80.91;98220.13;4961152;28;20034;-94
2024/01/07 08:10:51;;;;;;;1.05;1.05;;;;;;;2.73;80.43;98221.38;4973036;28;20038;-93
2024/01/07 08:13:16;;;;;;;1.00;1.00;;;;;;;2.75;80.79;98229.34;4965556;28;20053;-95
2024/01/07 08:15:42;;;;;;;1.00;1.00;;;;;;;2.73;80.47;98230.97;4945299;28;20035;-94
2024/01/07 08:18:08;;;;;;;1.02;1.02;;;;;;;2.82;79.36;98226.16;4955140;28;20042;-91
2024/01/07 08:20:34;;;;;;;1.10;1.10;;;;;;;2.68;80.13;98225.47;4958774;28;20035;-92
2024/01/07 08:23:10;;;;;;;1.10;1.10;;;;;;;2.84;79.22;98229.81;4947528;28;20051;-94
2024/01/07 08:25:35;;;;;;;1.10;1.10;;;;;;;2.85;80.21;98230.72;4936874;28;20111;-93
2024/01/07 08:28:01;;;;;;;1.10;1.10;;;;;;;2.72;79.11;98227.44;4947573;28;20074;-93
2024/01/07 08:30:27;;;;;;;1.10;1.10;;;;;;;2.82;79.22;98237.59;4956682;28;20756;-91
2024/01/07 08:32:53;;;;;;;1.10;1.10;;;;;;;2.83;79.70;98244.72;4954636;28;20038;-93
2024/01/07 08:35:19;;;;;;;1.10;1.10;;;;;;;2.78;78.88;98240.03;4942402;28;20429;-94
2024/01/07 08:37:50;;;;;;;1.10;1.10;;;;;;;2.91;78.36;98238.91;4961028;28;20035;-94
2024/01/07 08:40:29;;;;;;;1.10;1.10;;;;;;;2.80;76.85;98238.38;4949358;28;20047;-94
2024/01/07 08:43:06;;;;;;;1.10;1.10;;;;;;;2.93;77.52;98251.34;4962641;28;20751;-94
2024/01/07 08:45:36;;;;;;;1.10;1.10;;;;;;;2.79;77.40;98241.84;4948258;28;20337;-95
2024/01/07 08:48:02;;;;;;;1.10;1.10;;;;;;;2.79;76.53;98231.31;4988875;28;20415;-92
2024/01/07 08:50:27;;;;;;;1.10;1.10;;;;;;;2.53;77.41;98249.28;4976415;28;20045;-92
2024/01/07 08:52:53;;;;;;;1.00;1.00;;;;;;;2.60;77.70;98245.25;4976163;28;20050;-91
2024/01/07 08:55:19;;;;;;;1.10;1.10;;;;;;;2.54;76.72;98251.09;4974272;28;20038;-92
2024/01/07 08:57:48;;;;;;;1.02;1.02;;;;;;;2.54;77.56;98256.38;4950566;28;20039;-93
2024/01/07 09:00:16;;;;;;;1.00;1.00;;;;;;;2.51;77.67;98263.19;4947781;28;20031;-93
2024/01/07 09:02:45;;;;;;;1.00;1.00;;;;;;;2.51;78.64;98261.47;4969251;28;20032;-94
2024/01/07 09:05:14;;;;;;;1.08;1.08;;;;;;;2.31;77.68;98259.50;4969020;28;20048;-91
2024/01/07 09:07:39;;;;;;;1.10;1.10;;;;;;;2.35;77.80;98278.97;4961315;28;20105;-96
2024/01/07 09:10:10;;;;;;;1.10;1.10;;;;;;;2.33;78.05;98278.91;4956525;28;20473;-93
2024/01/07 09:12:37;;;;;;;1.10;1.10;;;;;;;2.38;78.40;98287.97;4964942;28;20126;-93
2024/01/07 09:15:10;;;;;;;1.10;1.10;;;;;;;2.39;78.70;98288.84;4967763;28;20190;-94
2024/01/07 09:17:37;;;;;;;1.10;1.10;;;;;;;2.33;78.39;98284.19;4973205;28;20039;-92
2024/01/07 09:20:07;;;;;;;;;;;;;;;2.23;78.18;98292.41;4975505;28;20054;-96
2024/01/07 09:22:35;;;;;;;1.02;1.02;;;;;;;2.23;78.24;98295.94;4958224;28;19929;-94
2024/01/07 09:25:06;;;;;;;1.10;1.10;;;;;;;2.34;79.19;98296.50;4967669;28;20038;-90
2024/01/07 09:27:33;;;;;;;1.00;1.00;;;;;;;2.39;78.08;98304.66;4966650;28;20027;-94
2024/01/07 09:30:04;;;;;;;1.10;1.10;;;;;;;2.36;78.44;98289.63;4967537;28;20046;-93
2024/01/07 09:32:31;;;;;;;;;;;;;;;2.45;78.45;98313.81;4960442;28;20035;-91
2024/01/07 09:34:57;;;;;;;1.10;1.10;;;;;;;2.34;78.09;98308.75;4950867;28;19946;-93
2024/01/07 09:37:25;;;;;;;0.90;0.90;;;;;;;2.43;78.26;98320.69;4975553;28;20063;-94
2024/01/07 09:39:51;;;;;;;1.10;1.10;;;;;;;2.55;78.34;98315.19;4951166;28;20039;-94
2024/01/07 09:42:18;;;;;;;1.10;1.10;;;;;;;2.45;78.19;98311.19;4972170;28;20296;-94
2024/01/07 09:44:44;;;;;;;1.00;1.00;;;;;;;2.36;78.27;98317.66;4998187;28;20042;-94
2024/01/07 09:47:15;;;;;;;1.10;1.10;;;;;;;2.46;78.04;98309.44;4944028;28;20079;-93
2024/01/07 09:49:43;;;;;;;1.10;1.10;;;;;;;2.48;78.22;98313.03;4977383;28;20036;-92
2024/01/07 09:52:11;;;;;;;1.00;1.00;;;;;;;2.30;78.00;98307.72;4955163;29;20039;-94
2024/01/07 09:54:38;;;;;;;1.10;1.10;;;;;;;2.28;77.13;98299.72;4965979;28;20519;-94
2024/01/07 09:57:08;;;;;;;1.10;1.10;;;;;;;2.30;77.85;98299.81;4952167;28;20035;-94
2024/01/07 09:59:39;;;;;;;1.10;1.10;;;;;;;2.26;76.99;98306.63;4966323;28;20788;-94
2024/01/07 10:02:07;;;;;;;1.10;1.10;;;;;;;2.27;76.91;98303.19;4969345;28;20027;-91
2024/01/07 10:04:32;;;;;;;1.10;1.10;;;;;;;2.30;76.80;98316.50;4979081;28;20019;-91
2024/01/07 10:07:00;;;;;;;1.10;1.10;;;;;;;2.33;76.05;98299.97;4977914;28;20050;-93
2024/01/07 10:09:32;;;;;;;1.10;1.10;;;;;;;2.39;75.73;98308.19;4978083;28;20030;-94
2024/01/07 10:11:58;;;;;;;1.00;1.00;;;;;;;2.36;75.63;98312.41;4978139;28;20039;-92
2024/01/07 10:14:25;;;;;;;1.10;1.10;;;;;;;2.32;74.84;98303.44;4929193;28;20065;-91
2024/01/07 10:16:52;;;;;;;1.10;1.10;;;;;;;2.39;75.20;98307.28;4985124;28;20039;-93
2024/01/07 10:19:23;;;;;;;1.10;1.10;;;;;;;2.41;75.96;98303.03;4963128;28;20581;-92
2024/01/07 10:22:00;;;;;;;1.10;1.10;;;;;;;2.52;74.73;98310.66;4976209;28;20488;-92
2024/01/07 10:24:36;;;;;;;1.17;1.17;;;;;;;2.40;74.66;98311.75;4939775;28;20044;-92
2024/01/07 10:27:03;;;;;;;1.10;1.10;;;;;;;2.40;74.23;98309.13;4980395;28;20070;-95
2024/01/07 10:29:32;;;;;;;1.10;1.10;;;;;;;2.33;74.50;98315.75;4968027;28;20027;-93
2024/01/07 10:31:59;;;;;;;1.10;1.10;;;;;;;2.34;73.56;98307.03;4978353;28;20042;-95
2024/01/07 10:34:28;;;;;;;1.15;1.15;;;;;;;2.46;73.75;98315.59;4994617;28;20043;-95
2024/01/07 10:36:56;;;;;;;1.10;1.10;;;;;;;2.47;74.11;98317.41;4981000;28;20051;-96
2024/01/07 10:39:23;;;;;;;1.10;1.10;;;;;;;2.49;73.82;98318.41;4949141;28;20023;-95
2024/01/07 10:41:53;;;;;;;1.10;1.10;;;;;;;2.43;74.17;98322.44;4963963;28;20046;-92
2024/01/07 10:44:20;;;;;;;1.10;1.10;;;;;;;2.45;74.43;98328.69;4973711;28;20051;-94
2024/01/07 10:46:46;;;;;;;1.00;1.00;;;;;;;2.58;73.48;98320.63;4953711;28;20285;-92
2024/01/07 10:49:20;;;;;;;1.10;1.10;;;;;;;2.46;74.14;98322.59;4952330;28;20055;-93
2024/01/07 10:52:08;;;;;;;1.10;1.10;;;;;;;2.37;74.17;98332.63;4981467;28;20270;-94
2024/01/07 10:54:35;;;;;;;1.10;1.10;;;;;;;2.33;74.56;98328.03;4980866;28;20031;-94
2024/01/07 10:57:12;;;;;;;1.10;1.10;;;;;;;2.28;73.72;98333.94;4989877;28;20031;-95
2024/01/07 10:59:38;;;;;;;;;;;;;;;2.20;74.54;98332.59;4960401;28;20066;-96
2024/01/07 11:02:04;;;;;;;1.10;1.10;;;;;;;2.17;75.18;98329.81;4964753;28;20009;-94
2024/01/07 11:04:39;;;;;;;1.10;1.10;;;;;;;2.14;74.46;98332.28;4954205;28;20023;-92
2024/01/07 11:07:13;;;;;;;1.10;1.10;;;;;;;2.15;74.40;98325.28;4989248;28;20023;-92
2024/01/07 11:10:09;;;;;;;1.10;1.10;;;;;;;2.13;74.98;98340.09;4986084;28;20062;-91
2024/01/07 11:12:34;;;;;;;1.10;1.10;;;;;;;2.16;74.54;98330.66;4962704;28;20047;-92
2024/01/07 11:15:01;;;;;;;1.20;1.20;;;;;;;2.08;74.75;98325.78;4972881;28;20054;-92
2024/01/07 11:17:36;;;;;;;1.10;1.10;;;;;;;1.94;74.74;98338.16;4954178;28;20352;-92
2024/01/07 11:20:06;;;;;;;1.20;1.20;;;;;;;2.03;74.89;98343.94;4988828;28;20058;-92
2024/01/07 11:22:33;;;;;;;1.00;1.00;;;;;;;2.17;74.75;98337.72;4970367;28;20039;-94
2024/01/07 11:25:02;;;;;;;1.10;1.10;;;;;;;2.19;74.08;98330.78;4974895;28;20034;-91
2024/01/07 11:27:33;;;;;;;1.17;1.17;;;;;;;2.14;74.07;98334.91;4973552;28;20107;-90
2024/01/07 11:30:07;;;;;;;1.00;1.00;;;;;;;2.16;73.99;98332.38;5003256;28;20112;-91
2024/01/07 11:32:34;;;;;;;1.05;1.05;;;;;;;2.24;74.12;98339.84;4958570;28;20035;-94
2024/01/07 11:35:02;;;;;;;1.10;1.10;;;;;;;2.09;74.26;98346.00;4955783;28;20059;-90
2024/01/07 11:37:28;;;;;;;1.10;1.10;;;;;;;2.00;74.98;98346.38;4949625;28;20120;-90
2024/01/07 11:39:59;;;;;;;1.10;1.10;;;;;;;2.11;74.31;98346.97;4971705;28;20039;-95
2024/01/07 11:42:25;;;;;;;1.10;1.10;;;;;;;2.15;73.84;98341.06;4936212;29;20036;-91
2024/01/07 11:44:58;;;;;;;1.10;1.10;;;;;;;2.02;74.29;98345.66;4982210;28;20028;-92
2024/01/07 11:47:27;;;;;;;1.10;1.10;;;;;;;2.17;73.66;98348.25;4971051;28;20042;-92
2024/01/07 11:49:53;;;;;;;1.10;1.10;;;;;;;1.86;72.31;98337.72;4962027;28;20048;-91
2024/01/07 11:52:20;;;;;;;1.10;1.10;;;;;;;1.93;73.34;98341.63;4979790;28;20075;-91
2024/01/07 11:54:47;;;;;;;1.10;1.10;;;;;;;1.72;72.22;98339.56;4979332;28;20050;-92
2024/01/07 11:57:14;;;;;;;1.20;1.20;;;;;;;1.89;73.44;98339.63;5006948;28;20011;-90
2024/01/07 11:59:39;;;;;;;1.15;1.15;;;;;;;1.90;72.31;98349.31;4980411;28;20041;-90
2024/01/07 12:02:07;;;;;;;1.10;1.10;;;;;;;1.74;72.56;98347.56;4977854;28;20054;-89